Time;durP1;ratioP1;P1;durP2;ratioP2;P2;SDS_P1;SDS_P2;PMS_P1;PMS_P2;Temp;Humidity;BMP_temperature;BMP_pressure;BME280_temperature;BME280_humidity;BME280_pressure;Samples;Min_cycle;Max_cycle;Signal;HPM_P1;HPM_P2
2023/04/08 00:02:07;;;;;;;;;;;8.10;99.90;;;;;;5075930;28;19908;-71
2023/04/08 00:04:32;;;;;;;;;;;8.00;99.90;;;;;;5074425;28;19999;-72
2023/04/08 00:06:58;;;;;;;;;;;8.10;99.90;;;;;;5074723;28;19947;-71
2023/04/08 00:09:24;;;;;;;;;;;8.00;99.90;;;;;;5074618;28;19928;-72
2023/04/08 00:11:50;;;;;;;;;;;8.00;99.90;;;;;;5073179;28;19918;-71
2023/04/08 00:14:16;;;;;;;;;;;7.90;99.90;;;;;;5072443;28;20026;-71
2023/04/08 00:16:42;;;;;;;;;;;7.90;99.90;;;;;;5075028;28;20528;-71
2023/04/08 00:19:07;;;;;;;;;;;7.80;99.90;;;;;;5074843;28;19909;-72
2023/04/08 00:21:33;;;;;;;;;;;7.90;99.90;;;;;;5073583;28;19915;-73
2023/04/08 00:23:59;;;;;;;;;;;7.90;99.90;;;;;;5072832;28;19917;-73
2023/04/08 00:26:25;;;;;;;;;;;7.90;99.90;;;;;;5072911;28;19916;-73
2023/04/08 00:28:50;;;;;;;;;;;8.00;99.90;;;;;;5072996;28;19917;-72
2023/04/08 00:31:16;;;;;;;;;;;8.00;99.90;;;;;;5074277;28;20410;-71
2023/04/08 00:33:42;;;;;;;;;;;7.90;99.90;;;;;;5074667;28;20281;-72
2023/04/08 00:36:08;;;;;;;;;;;7.90;99.90;;;;;;5072599;28;19954;-72
2023/04/08 00:38:33;;;;;;;;;;;7.90;99.90;;;;;;5074640;28;19916;-72
2023/04/08 00:40:59;;;;;;;;;;;7.80;99.90;;;;;;5073659;28;19919;-71
2023/04/08 00:43:25;;;;;;;;;;;7.90;99.90;;;;;;5073078;28;19991;-72
2023/04/08 00:45:51;;;;;;;;;;;8.00;99.90;;;;;;5073716;28;19912;-72
2023/04/08 00:48:17;;;;;;;;;;;8.00;99.90;;;;;;5074053;28;20003;-71
2023/04/08 00:50:43;;;;;;;;;;;7.90;99.90;;;;;;5074397;28;20021;-72
2023/04/08 00:53:09;;;;;;;;;;;8.00;99.90;;;;;;5074341;28;19908;-71
2023/04/08 00:55:35;;;;;;;;;;;8.00;99.90;;;;;;5073480;28;20394;-73
2023/04/08 00:58:00;;;;;;;;;;;8.10;99.90;;;;;;5073944;28;19912;-73
2023/04/08 01:00:28;;;;;;;;;;;8.10;99.90;;;;;;5073037;28;19987;-72
2023/04/08 01:03:12;;;;;;;;;;;8.00;99.90;;;;;;5074238;28;19999;-72
2023/04/08 01:05:55;;;;;;;;;;;8.10;99.90;;;;;;5072602;28;19916;-71
2023/04/08 01:08:22;;;;;;;;;;;8.20;99.90;;;;;;5078281;28;19941;-71
2023/04/08 01:10:50;;;;;;;;;;;8.10;99.90;;;;;;5077905;28;20058;-72
2023/04/08 01:13:17;;;;;;;;;;;8.10;99.90;;;;;;5076527;28;19909;-71
2023/04/08 01:15:44;;;;;;;;;;;8.10;99.90;;;;;;5077540;28;20376;-71
2023/04/08 01:18:11;;;;;;;;;;;8.10;99.90;;;;;;5077816;28;19909;-71
2023/04/08 01:20:37;;;;;;;;;;;8.10;99.90;;;;;;5076696;28;19973;-72
2023/04/08 01:23:09;;;;;;;;;;;8.10;99.90;;;;;;5076814;28;20317;-72
2023/04/08 01:25:36;;;;;;;;;;;8.10;99.90;;;;;;5077836;28;20327;-72
2023/04/08 01:28:11;;;;;;;;;;;8.20;99.90;;;;;;5078041;28;19920;-72
2023/04/08 01:30:40;;;;;;;;;;;8.10;99.90;;;;;;5076977;28;19909;-72
2023/04/08 01:33:06;;;;;;;;;;;8.10;99.90;;;;;;5077895;28;19916;-72
2023/04/08 01:35:32;;;;;;;;;;;8.10;99.90;;;;;;5077501;28;19909;-72
2023/04/08 01:37:58;;;;;;;;;;;8.10;99.90;;;;;;5078053;28;19908;-72
2023/04/08 01:40:24;;;;;;;;;;;8.10;99.90;;;;;;5076423;28;19908;-71
2023/04/08 01:42:52;;;;;;;;;;;8.10;99.90;;;;;;5077663;28;19909;-71
2023/04/08 01:45:18;;;;;;;;;;;8.00;99.90;;;;;;5075968;28;19989;-71
2023/04/08 01:47:47;;;;;;;;;;;8.00;99.90;;;;;;5076195;28;20032;-71
2023/04/08 01:50:14;;;;;;;;;;;8.00;99.90;;;;;;5076186;28;19913;-72
2023/04/08 01:52:40;;;;;;;;;;;8.10;99.90;;;;;;5077356;28;20180;-73
2023/04/08 01:55:06;;;;;;;;;;;8.10;99.90;;;;;;5077075;28;19929;-72
2023/04/08 01:57:34;;;;;;;;;;;8.10;99.90;;;;;;5077068;28;19912;-72
2023/04/08 02:00:03;;;;;;;;;;;8.10;99.90;;;;;;5077301;28;19908;-72
2023/04/08 02:02:29;;;;;;;;;;;8.10;99.90;;;;;;5077038;28;19954;-73
2023/04/08 02:04:54;;;;;;;;;;;8.10;99.90;;;;;;5075838;28;20292;-72
2023/04/08 02:07:20;;;;;;;;;;;8.10;99.90;;;;;;5076961;28;19916;-72
2023/04/08 02:09:46;;;;;;;;;;;8.00;99.90;;;;;;5077287;28;20333;-72
2023/04/08 02:12:12;;;;;;;;;;;8.00;99.90;;;;;;5077195;28;19909;-72
2023/04/08 02:14:38;;;;;;;;;;;8.00;99.90;;;;;;5074874;28;19908;-72
2023/04/08 02:17:18;;;;;;;;;;;8.10;99.90;;;;;;5076843;28;19909;-72
2023/04/08 02:19:51;;;;;;;;;;;8.10;99.90;;;;;;5075628;28;19974;-72
2023/04/08 02:22:52;;;;;;;;;;;8.10;99.90;;;;;;5076970;28;19908;-73
2023/04/08 02:25:20;;;;;;;;;;;8.00;99.90;;;;;;5033489;28;20390;-71
2023/04/08 02:27:48;;;;;;;;;;;8.00;99.90;;;;;;5068380;28;19913;-72
2023/04/08 02:30:14;;;;;;;;;;;8.00;99.90;;;;;;5076679;28;19940;-71
2023/04/08 02:32:40;;;;;;;;;;;8.00;99.90;;;;;;5075274;28;19963;-72
2023/04/08 02:35:07;;;;;;;;;;;8.00;99.90;;;;;;5076159;28;19912;-71
2023/04/08 02:37:33;;;;;;;;;;;8.10;99.90;;;;;;5074811;28;19909;-72
2023/04/08 02:39:59;;;;;;;;;;;8.10;99.90;;;;;;5075926;28;19912;-71
2023/04/08 02:42:25;;;;;;;;;;;8.20;99.90;;;;;;5075570;28;19909;-71
2023/04/08 02:44:54;;;;;;;;;;;8.20;99.90;;;;;;5075517;28;19966;-71
2023/04/08 02:47:20;;;;;;;;;;;8.20;99.90;;;;;;5075608;28;19912;-71
2023/04/08 02:49:45;;;;;;;;;;;8.20;99.90;;;;;;5074534;28;20385;-72
2023/04/08 02:52:11;;;;;;;;;;;8.40;99.90;;;;;;5076393;28;19908;-71
2023/04/08 02:54:37;;;;;;;;;;;8.40;99.90;;;;;;5075549;28;19908;-72
2023/04/08 02:57:02;;;;;;;;;;;8.40;99.90;;;;;;5075957;28;19909;-74
2023/04/08 02:59:28;;;;;;;;;;;8.40;99.90;;;;;;5075980;28;20362;-73
2023/04/08 03:01:54;;;;;;;;;;;8.40;99.90;;;;;;5075181;28;19915;-71
2023/04/08 03:04:19;;;;;;;;;;;8.30;99.90;;;;;;5076015;28;19908;-71
2023/04/08 03:06:45;;;;;;;;;;;8.30;99.90;;;;;;5075528;28;19939;-72
2023/04/08 03:09:11;;;;;;;;;;;8.30;99.90;;;;;;5074415;28;19965;-73
2023/04/08 03:11:36;;;;;;;;;;;8.30;99.90;;;;;;5076278;28;20008;-72
2023/04/08 03:14:02;;;;;;;;;;;8.30;99.90;;;;;;5075632;28;19908;-72
2023/04/08 03:16:27;;;;;;;;;;;8.30;99.90;;;;;;5076067;28;19935;-72
2023/04/08 03:18:53;;;;;;;;;;;8.30;99.90;;;;;;5074402;28;20358;-72
2023/04/08 03:21:19;;;;;;;;;;;8.40;99.90;;;;;;5074288;28;19916;-71
2023/04/08 03:23:44;;;;;;;;;;;8.40;99.90;;;;;;5075270;28;19923;-72
2023/04/08 03:26:10;;;;;;;;;;;8.40;99.90;;;;;;5075103;28;19986;-71
2023/04/08 03:28:36;;;;;;;;;;;8.40;99.90;;;;;;5073700;28;19908;-72
2023/04/08 03:31:03;;;;;;;;;;;8.50;99.90;;;;;;5075104;28;19908;-73
2023/04/08 03:33:28;;;;;;;;;;;8.50;99.90;;;;;;5075306;28;19909;-72
2023/04/08 03:35:54;;;;;;;;;;;8.50;99.90;;;;;;5075126;28;20275;-73
2023/04/08 03:38:20;;;;;;;;;;;8.60;99.90;;;;;;5075432;28;19919;-72
2023/04/08 03:40:46;;;;;;;;;;;8.60;99.90;;;;;;5073676;28;19908;-72
2023/04/08 03:43:12;;;;;;;;;;;8.70;99.90;;;;;;5074914;28;20389;-72
2023/04/08 03:45:38;;;;;;;;;;;8.60;99.90;;;;;;5074777;28;20436;-72
2023/04/08 03:48:04;;;;;;;;;;;8.60;99.90;;;;;;5073321;28;19912;-72
2023/04/08 03:50:29;;;;;;;;;;;8.60;99.90;;;;;;5075445;28;20327;-72
2023/04/08 03:52:55;;;;;;;;;;;8.70;99.90;;;;;;5074756;28;20390;-71
2023/04/08 03:55:21;;;;;;;;;;;8.70;99.90;;;;;;5073032;28;19918;-72
2023/04/08 03:57:46;;;;;;;;;;;8.70;99.90;;;;;;5075070;28;19913;-72
2023/04/08 04:00:13;;;;;;;;;;;8.70;99.90;;;;;;5073439;28;19916;-72
2023/04/08 04:02:38;;;;;;;;;;;8.70;99.90;;;;;;5074867;28;19908;-72
2023/04/08 04:05:04;;;;;;;;;;;8.70;99.90;;;;;;5073098;28;19958;-73
2023/04/08 04:07:30;;;;;;;;;;;8.70;99.90;;;;;;5073391;28;20010;-72
2023/04/08 04:09:56;;;;;;;;;;;8.70;99.90;;;;;;5073175;28;19915;-73
2023/04/08 04:12:22;;;;;;;;;;;8.70;99.90;;;;;;5074826;28;19913;-73
2023/04/08 04:14:47;;;;;;;;;;;8.70;99.90;;;;;;5072848;28;19908;-72
2023/04/08 04:17:13;;;;;;;;;;;8.70;99.90;;;;;;5073123;28;19934;-71
2023/04/08 04:19:39;;;;;;;;;;;8.70;99.90;;;;;;5074149;28;19908;-72
2023/04/08 04:22:05;;;;;;;;;;;8.70;99.90;;;;;;5073207;28;19912;-72
2023/04/08 04:24:30;;;;;;;;;;;8.70;99.90;;;;;;5072712;28;19939;-71
2023/04/08 04:26:56;;;;;;;;;;;8.80;99.90;;;;;;5074017;28;19912;-72
2023/04/08 04:29:22;;;;;;;;;;;8.80;99.90;;;;;;5074377;28;19908;-71
2023/04/08 04:31:47;;;;;;;;;;;8.90;99.90;;;;;;5073047;28;19908;-72
2023/04/08 04:34:13;;;;;;;;;;;8.80;99.90;;;;;;5072746;28;19908;-72
2023/04/08 04:36:39;;;;;;;;;;;8.90;99.90;;;;;;5072929;28;19916;-71
2023/04/08 04:39:07;;;;;;;;;;;8.80;99.90;;;;;;5074698;28;19958;-72
2023/04/08 04:41:37;;;;;;;;;;;8.80;99.90;;;;;;5073988;28;19908;-72
2023/04/08 04:44:03;;;;;;;;;;;8.80;99.90;;;;;;5073644;28;20419;-72
2023/04/08 04:46:29;;;;;;;;;;;8.80;99.90;;;;;;5074421;28;19912;-72
2023/04/08 04:48:55;;;;;;;;;;;8.80;99.90;;;;;;5074393;28;19908;-73
2023/04/08 04:51:21;;;;;;;;;;;8.80;99.90;;;;;;5074110;28;19930;-73
2023/04/08 04:53:48;;;;;;;;;;;8.80;99.90;;;;;;5073063;28;19913;-71
2023/04/08 04:56:13;;;;;;;;;;;8.90;99.90;;;;;;5073662;28;19931;-73
2023/04/08 04:58:39;;;;;;;;;;;8.90;99.90;;;;;;5074327;28;19909;-73
2023/04/08 05:01:05;;;;;;;;;;;8.90;99.90;;;;;;5074537;28;19931;-71
2023/04/08 05:03:31;;;;;;;;;;;8.90;99.90;;;;;;5074211;28;19913;-71
2023/04/08 05:05:56;;;;;;;;;;;9.00;99.90;;;;;;5073812;28;19916;-72
2023/04/08 05:08:22;;;;;;;;;;;9.00;99.90;;;;;;5074255;28;20378;-72
2023/04/08 05:10:49;;;;;;;;;;;9.00;99.90;;;;;;5073674;28;19908;-73
2023/04/08 05:13:15;;;;;;;;;;;9.10;99.90;;;;;;5074244;28;19963;-72
2023/04/08 05:15:41;;;;;;;;;;;9.10;99.90;;;;;;5073702;28;20358;-71
2023/04/08 05:18:07;;;;;;;;;;;9.20;99.90;;;;;;5072851;28;19909;-71
2023/04/08 05:20:33;;;;;;;;;;;9.20;99.90;;;;;;5072462;28;19912;-72
2023/04/08 05:22:59;;;;;;;;;;;9.20;99.90;;;;;;5072844;28;19921;-72
2023/04/08 05:25:24;;;;;;;;;;;9.20;99.90;;;;;;5072460;28;19957;-72
2023/04/08 05:27:50;;;;;;;;;;;9.30;99.90;;;;;;5073931;28;19916;-72
2023/04/08 05:30:16;;;;;;;;;;;9.30;99.90;;;;;;5074133;28;19920;-72
2023/04/08 05:32:41;;;;;;;;;;;9.40;99.90;;;;;;5074419;28;19908;-71
2023/04/08 05:35:10;;;;;;;;;;;9.40;99.90;;;;;;5072285;28;19995;-72
2023/04/08 05:37:36;;;;;;;;;;;9.50;99.90;;;;;;5072896;28;19943;-72
2023/04/08 05:40:01;;;;;;;;;;;9.60;99.90;;;;;;5073977;28;19955;-72
2023/04/08 05:42:27;;;;;;;;;;;9.60;99.90;;;;;;5073038;28;19908;-72
2023/04/08 05:44:53;;;;;;;;;;;9.60;99.90;;;;;;5072937;28;19917;-73
2023/04/08 05:47:19;;;;;;;;;;;9.60;99.90;;;;;;5072601;28;19931;-72
2023/04/08 05:49:44;;;;;;;;;;;9.60;99.90;;;;;;5073882;28;19944;-72
2023/04/08 05:52:10;;;;;;;;;;;9.70;99.90;;;;;;5074828;28;19912;-72
2023/04/08 05:54:36;;;;;;;;;;;9.70;99.90;;;;;;5076767;28;19916;-72
2023/04/08 05:57:02;;;;;;;;;;;9.70;99.90;;;;;;5076011;28;19908;-72
2023/04/08 05:59:27;;;;;;;;;;;9.70;99.90;;;;;;5076778;28;19974;-73
2023/04/08 06:01:54;;;;;;;;;;;9.80;99.90;;;;;;5076791;28;19928;-72
2023/04/08 06:04:20;;;;;;;;;;;9.90;99.90;;;;;;5075008;28;19920;-72
2023/04/08 06:06:45;;;;;;;;;;;10.00;99.90;;;;;;5077147;28;20015;-72
2023/04/08 06:09:11;;;;;;;;;;;10.00;99.90;;;;;;5076934;28;20365;-71
2023/04/08 06:11:37;;;;;;;;;;;10.00;99.90;;;;;;5075805;28;20337;-72
2023/04/08 06:14:02;;;;;;;;;;;10.00;99.90;;;;;;5076112;28;20393;-73
2023/04/08 06:16:28;;;;;;;;;;;10.00;99.90;;;;;;5075211;28;19934;-72
2023/04/08 06:18:54;;;;;;;;;;;10.00;99.90;;;;;;5076893;28;19908;-72
2023/04/08 06:21:20;;;;;;;;;;;10.00;99.90;;;;;;5074913;28;19908;-71
2023/04/08 06:23:46;;;;;;;;;;;10.10;99.90;;;;;;5075159;28;20011;-72
2023/04/08 06:26:15;;;;;;;;;;;10.10;99.90;;;;;;5075132;28;20194;-72
2023/04/08 06:28:40;;;;;;;;;;;10.00;99.90;;;;;;5075659;28;19912;-74
2023/04/08 06:31:06;;;;;;;;;;;10.20;99.90;;;;;;5076885;28;19908;-72
2023/04/08 06:33:32;;;;;;;;;;;10.20;99.90;;;;;;5076514;28;19908;-71
2023/04/08 06:36:03;;;;;;;;;;;10.30;99.90;;;;;;5076299;28;19935;-73
2023/04/08 06:38:30;;;;;;;;;;;10.30;99.90;;;;;;5076279;28;19908;-72
2023/04/08 06:41:00;;;;;;;;;;;10.40;99.90;;;;;;5076506;28;20393;-73
2023/04/08 06:43:26;;;;;;;;;;;10.40;99.90;;;;;;5075332;28;20323;-72
2023/04/08 06:45:52;;;;;;;;;;;10.50;99.90;;;;;;5074644;28;19923;-73
2023/04/08 06:48:18;;;;;;;;;;;10.60;99.90;;;;;;5076189;28;20336;-72
2023/04/08 06:50:43;;;;;;;;;;;10.70;99.90;;;;;;5074225;28;19916;-74
2023/04/08 06:53:09;;;;;;;;;;;10.80;99.90;;;;;;5075919;28;19915;-73
2023/04/08 06:55:35;;;;;;;;;;;11.00;99.90;;;;;;5075351;28;19908;-72
2023/04/08 06:58:01;;;;;;;;;;;11.00;99.90;;;;;;5075486;28;19917;-72
2023/04/08 07:00:26;;;;;;;;;;;11.10;99.90;;;;;;5074220;28;19915;-72
2023/04/08 07:02:52;;;;;;;;;;;11.20;99.90;;;;;;5075847;28;19909;-72
2023/04/08 07:05:18;;;;;;;;;;;11.30;99.90;;;;;;5074881;28;19908;-73
2023/04/08 07:07:44;;;;;;;;;;;11.40;99.90;;;;;;5075401;28;19927;-73
2023/04/08 07:10:09;;;;;;;;;;;11.40;99.90;;;;;;5075758;28;19948;-73
2023/04/08 07:12:35;;;;;;;;;;;11.50;99.90;;;;;;5075216;28;19915;-73
2023/04/08 07:15:01;;;;;;;;;;;11.70;99.90;;;;;;5075221;28;19919;-73
2023/04/08 07:17:26;;;;;;;;;;;11.80;99.90;;;;;;5075547;28;19913;-73
2023/04/08 07:19:52;;;;;;;;;;;11.80;99.90;;;;;;5074073;28;19908;-73
2023/04/08 07:22:18;;;;;;;;;;;11.80;99.90;;;;;;5073897;28;19935;-72
2023/04/08 07:24:48;;;;;;;;;;;11.90;99.90;;;;;;5074572;28;19916;-73
2023/04/08 07:27:15;;;;;;;;;;;12.00;99.90;;;;;;5075039;28;19916;-72
2023/04/08 07:29:41;;;;;;;;;;;12.20;99.90;;;;;;5075287;28;20033;-73
2023/04/08 07:32:07;;;;;;;;;;;12.30;99.90;;;;;;5074639;28;19954;-72
2023/04/08 07:34:35;;;;;;;;;;;12.40;99.90;;;;;;5074371;28;20321;-72
2023/04/08 07:37:01;;;;;;;;;;;12.50;99.90;;;;;;5073317;28;19994;-72
2023/04/08 07:39:27;;;;;;;;;;;12.50;99.90;;;;;;5073354;28;19908;-74
2023/04/08 07:41:53;;;;;;;;;;;12.60;99.90;;;;;;5075249;28;19920;-73
2023/04/08 07:44:19;;;;;;;;;;;12.80;99.90;;;;;;5074740;28;19908;-73
2023/04/08 07:46:45;;;;;;;;;;;12.80;99.90;;;;;;5075822;28;19913;-73
2023/04/08 07:49:11;;;;;;;;;;;13.00;99.90;;;;;;5074488;28;19919;-73
2023/04/08 07:51:37;;;;;;;;;;;13.10;99.90;;;;;;5074349;28;19975;-73
2023/04/08 07:54:02;;;;;;;;;;;13.30;99.90;;;;;;5073822;28;20358;-76
2023/04/08 07:56:28;;;;;;;;;;;13.50;99.90;;;;;;5074237;28;19954;-73
2023/04/08 07:58:54;;;;;;;;;;;13.60;99.90;;;;;;5073019;28;19908;-72
2023/04/08 08:01:21;;;;;;;;;;;13.80;99.90;;;;;;5074126;28;19966;-73
2023/04/08 08:03:47;;;;;;;;;;;13.90;99.90;;;;;;5073039;28;19979;-73
2023/04/08 08:06:13;;;;;;;;;;;14.00;99.90;;;;;;5060998;28;20265;-74
2023/04/08 08:08:38;;;;;;;;;;;14.20;99.90;;;;;;5067974;28;19920;-73
2023/04/08 08:11:04;;;;;;;;;;;14.30;99.90;;;;;;5073210;28;19908;-74
2023/04/08 08:13:30;;;;;;;;;;;14.50;99.90;;;;;;5073820;28;19954;-74
2023/04/08 08:15:55;;;;;;;;;;;14.60;99.90;;;;;;5066711;28;19915;-74
2023/04/08 08:18:21;;;;;;;;;;;14.90;99.90;;;;;;5071573;28;19912;-73
2023/04/08 08:20:47;;;;;;;;;;;14.80;99.90;;;;;;5072351;28;20000;-74
2023/04/08 08:23:12;;;;;;;;;;;14.90;99.90;;;;;;5071862;28;19966;-73
2023/04/08 08:25:38;;;;;;;;;;;15.00;99.90;;;;;;5071668;28;20275;-73
2023/04/08 08:28:04;;;;;;;;;;;14.90;99.90;;;;;;5072779;28;19958;-73
2023/04/08 08:30:30;;;;;;;;;;;14.90;99.90;;;;;;5073788;28;19908;-74
2023/04/08 08:32:57;;;;;;;;;;;15.00;99.90;;;;;;5074860;28;19966;-74
2023/04/08 08:35:23;;;;;;;;;;;15.00;99.90;;;;;;5073122;28;19909;-74
2023/04/08 08:37:49;;;;;;;;;;;15.00;99.90;;;;;;5074249;28;19909;-74
2023/04/08 08:40:15;;;;;;;;;;;15.00;99.90;;;;;;5073350;28;19931;-73
2023/04/08 08:42:41;;;;;;;;;;;15.20;99.90;;;;;;5075360;28;20404;-74
2023/04/08 08:45:07;;;;;;;;;;;15.30;99.90;;;;;;5073124;28;19932;-74
2023/04/08 08:47:33;;;;;;;;;;;15.40;99.90;;;;;;5074479;28;19928;-73
2023/04/08 08:49:59;;;;;;;;;;;15.40;99.90;;;;;;5071550;28;19908;-73
2023/04/08 08:52:25;;;;;;;;;;;15.50;99.90;;;;;;5071818;28;19931;-73
2023/04/08 08:54:57;;;;;;;;;;;15.50;99.90;;;;;;5072752;28;19958;-74
2023/04/08 08:57:23;;;;;;;;;;;15.50;99.90;;;;;;5072351;28;20419;-73
2023/04/08 08:59:49;;;;;;;;;;;15.60;99.90;;;;;;5073771;28;19913;-75
2023/04/08 09:02:25;;;;;;;;;;;15.60;99.90;;;;;;5074107;28;20275;-75
2023/04/08 09:05:01;;;;;;;;;;;15.60;99.90;;;;;;5073595;28;19978;-73
2023/04/08 09:07:28;;;;;;;;;;;15.60;99.90;;;;;;5075057;28;19955;-74
2023/04/08 09:09:54;;;;;;;;;;;15.80;99.90;;;;;;5075209;28;19981;-74
2023/04/08 09:12:20;;;;;;;;;;;15.90;99.90;;;;;;5074498;28;19909;-74
2023/04/08 09:14:47;;;;;;;;;;;16.00;99.90;;;;;;5074941;28;19910;-74
2023/04/08 09:17:13;;;;;;;;;;;16.00;99.90;;;;;;5075338;28;19912;-74
2023/04/08 09:19:39;;;;;;;;;;;16.00;99.90;;;;;;5073956;28;19916;-74
2023/04/08 09:22:06;;;;;;;;;;;15.90;99.90;;;;;;5076367;28;20266;-74
2023/04/08 09:24:32;;;;;;;;;;;15.90;99.90;;;;;;5073203;28;19948;-75
2023/04/08 09:26:57;;;;;;;;;;;15.90;99.90;;;;;;5076358;28;19959;-74
2023/04/08 09:29:25;;;;;;;;;;;15.70;99.90;;;;;;5077677;28;20281;-74
2023/04/08 09:31:57;;;;;;;;;;;15.70;99.90;;;;;;5077590;28;19912;-73
2023/04/08 09:34:23;;;;;;;;;;;15.70;99.90;;;;;;5076465;28;19955;-74
2023/04/08 09:36:49;;;;;;;;;;;15.90;99.90;;;;;;5076305;28;19929;-74
2023/04/08 09:39:15;;;;;;;;;;;16.00;99.90;;;;;;5077380;28;19916;-74
2023/04/08 09:41:41;;;;;;;;;;;16.00;99.90;;;;;;5077301;28;19912;-73
2023/04/08 09:44:08;;;;;;;;;;;16.00;99.90;;;;;;5076388;28;20274;-74
2023/04/08 09:46:42;;;;;;;;;;;16.10;99.90;;;;;;5075555;28;19916;-73
2023/04/08 09:49:08;;;;;;;;;;;16.10;98.80;;;;;;5077144;28;19909;-75
2023/04/08 09:52:03;;;;;;;;;;;16.20;99.30;;;;;;5077158;28;19932;-73
2023/04/08 09:54:34;;;;;;;;;;;16.20;99.90;;;;;;5067505;28;19915;-75
2023/04/08 09:57:03;;;;;;;;;;;16.10;99.90;;;;;;5076876;28;19993;-73
2023/04/08 09:59:32;;;;;;;;;;;16.10;99.90;;;;;;5075456;28;19909;-75
2023/04/08 10:02:00;;;;;;;;;;;16.00;99.90;;;;;;5076725;28;20070;-74
2023/04/08 10:04:27;;;;;;;;;;;16.00;98.90;;;;;;5075864;28;19912;-74
2023/04/08 10:07:03;;;;;;;;;;;15.90;97.80;;;;;;5076203;28;19919;-74
2023/04/08 10:09:29;;;;;;;;;;;16.00;96.20;;;;;;5076491;28;19955;-73
2023/04/08 10:11:54;;;;;;;;;;;16.00;97.70;;;;;;5075237;28;19985;-73
2023/04/08 10:14:21;;;;;;;;;;;16.10;96.70;;;;;;5076133;28;19916;-74
2023/04/08 10:16:46;;;;;;;;;;;16.20;93.70;;;;;;5076543;28;19908;-73
2023/04/08 10:19:36;;;;;;;;;;;16.20;95.10;;;;;;5075498;28;19915;-74
2023/04/08 10:22:01;;;;;;;;;;;16.20;95.90;;;;;;5075892;28;19908;-74
2023/04/08 10:24:27;;;;;;;;;;;16.10;95.60;;;;;;5074358;28;20437;-73
2023/04/08 10:26:53;;;;;;;;;;;16.00;95.00;;;;;;5074826;28;19916;-74
2023/04/08 10:29:20;;;;;;;;;;;16.00;94.20;;;;;;5076014;28;19958;-73
2023/04/08 10:31:46;;;;;;;;;;;16.00;95.20;;;;;;5074698;28;20298;-74
2023/04/08 10:34:18;;;;;;;;;;;16.10;94.90;;;;;;5075333;28;20393;-75
2023/04/08 10:36:45;;;;;;;;;;;16.10;95.90;;;;;;5075567;28;20007;-75
2023/04/08 10:39:12;;;;;;;;;;;16.20;95.60;;;;;;5076704;28;19961;-75
2023/04/08 10:41:42;;;;;;;;;;;16.30;94.80;;;;;;5076203;28;19916;-74
2023/04/08 10:44:15;;;;;;;;;;;16.40;95.10;;;;;;5073725;28;19916;-74
2023/04/08 10:46:40;;;;;;;;;;;16.40;93.40;;;;;;5075640;28;19912;-74
2023/04/08 10:49:07;;;;;;;;;;;16.50;95.60;;;;;;5075652;28;20476;-74
2023/04/08 10:51:34;;;;;;;;;;;16.50;95.60;;;;;;5075821;28;19916;-74
2023/04/08 10:54:07;;;;;;;;;;;16.30;95.80;;;;;;5076248;28;19912;-74
2023/04/08 10:56:33;;;;;;;;;;;16.40;94.90;;;;;;5074390;28;19962;-74
2023/04/08 10:58:58;;;;;;;;;;;16.50;93.30;;;;;;5075971;28;20343;-73
2023/04/08 11:01:24;;;;;;;;;;;16.50;93.90;;;;;;5074341;28;19908;-74
2023/04/08 11:03:50;;;;;;;;;;;16.50;94.00;;;;;;5075559;28;19915;-73
2023/04/08 11:06:18;;;;;;;;;;;16.50;94.80;;;;;;5075585;28;19954;-73
2023/04/08 11:08:44;;;;;;;;;;;16.40;94.70;;;;;;5075764;28;19916;-74
2023/04/08 11:11:10;;;;;;;;;;;16.20;97.40;;;;;;5073832;28;20388;-74
2023/04/08 11:13:40;;;;;;;;;;;16.10;98.60;;;;;;5073935;28;20018;-74
2023/04/08 11:16:09;;;;;;;;;;;16.10;98.50;;;;;;5073130;28;19958;-74
2023/04/08 11:18:38;;;;;;;;;;;16.10;99.90;;;;;;5074900;28;19958;-74
2023/04/08 11:21:08;;;;;;;;;;;16.20;99.90;;;;;;5073865;28;20050;-74
2023/04/08 11:23:34;;;;;;;;;;;16.30;99.90;;;;;;5074191;28;19969;-74
2023/04/08 11:26:00;;;;;;;;;;;16.50;99.90;;;;;;5074962;28;20446;-74
2023/04/08 11:28:26;;;;;;;;;;;16.70;99.90;;;;;;5075387;28;19956;-75
2023/04/08 11:30:53;;;;;;;;;;;16.70;99.90;;;;;;5074149;28;19962;-75
2023/04/08 11:33:19;;;;;;;;;;;16.60;99.90;;;;;;5075721;28;19908;-74
2023/04/08 11:35:45;;;;;;;;;;;16.60;99.90;;;;;;5073527;28;19952;-74
2023/04/08 11:38:11;;;;;;;;;;;16.80;99.90;;;;;;5074030;28;19919;-74
2023/04/08 11:40:37;;;;;;;;;;;16.80;99.90;;;;;;5074860;28;19924;-74
2023/04/08 11:43:09;;;;;;;;;;;16.90;99.90;;;;;;5074101;28;19908;-75
2023/04/08 11:45:39;;;;;;;;;;;16.90;99.90;;;;;;5074507;28;19919;-74
2023/04/08 11:48:12;;;;;;;;;;;16.90;99.90;;;;;;5073492;28;20434;-74
2023/04/08 11:50:38;;;;;;;;;;;16.90;99.90;;;;;;5074068;28;19940;-74
2023/04/08 11:53:15;;;;;;;;;;;16.80;99.90;;;;;;5073380;28;19915;-74
2023/04/08 11:55:40;;;;;;;;;;;16.70;99.90;;;;;;5074734;28;19935;-75
2023/04/08 11:58:06;;;;;;;;;;;16.80;99.90;;;;;;5073081;28;20378;-74
2023/04/08 12:00:32;;;;;;;;;;;16.80;99.90;;;;;;5074399;28;19931;-74
2023/04/08 12:02:57;;;;;;;;;;;16.90;99.90;;;;;;5072545;28;20449;-74
2023/04/08 12:05:23;;;;;;;;;;;16.90;99.90;;;;;;5073709;28;19909;-74
2023/04/08 12:07:49;;;;;;;;;;;16.90;99.90;;;;;;5072824;28;20378;-74
2023/04/08 12:10:14;;;;;;;;;;;16.90;99.90;;;;;;5073886;28;19954;-74
2023/04/08 12:12:40;;;;;;;;;;;16.80;99.90;;;;;;5072735;28;19908;-74
2023/04/08 12:15:09;;;;;;;;;;;16.90;99.90;;;;;;5073600;28;20290;-74
2023/04/08 12:17:37;;;;;;;;;;;17.00;99.90;;;;;;5073880;28;19908;-74
2023/04/08 12:20:03;;;;;;;;;;;17.00;99.90;;;;;;5072747;28;19909;-73
2023/04/08 12:22:29;;;;;;;;;;;16.90;99.90;;;;;;5072592;28;19909;-74
2023/04/08 12:24:55;;;;;;;;;;;16.80;99.90;;;;;;5073882;28;20018;-74
2023/04/08 12:27:20;;;;;;;;;;;16.90;99.90;;;;;;5071359;28;20332;-75
2023/04/08 12:29:48;;;;;;;;;;;16.80;99.90;;;;;;5074470;28;20211;-75
2023/04/08 12:32:14;;;;;;;;;;;16.70;99.90;;;;;;5074677;28;19909;-75
2023/04/08 12:34:40;;;;;;;;;;;16.70;99.90;;;;;;5073963;28;19915;-76
2023/04/08 12:37:06;;;;;;;;;;;16.80;99.90;;;;;;5074462;28;19908;-76
2023/04/08 12:39:32;;;;;;;;;;;16.80;99.90;;;;;;5075211;28;20392;-76
2023/04/08 12:41:58;;;;;;;;;;;16.80;99.90;;;;;;5075018;28;19908;-76
2023/04/08 12:44:24;;;;;;;;;;;16.70;99.90;;;;;;5075052;28;19909;-76
2023/04/08 12:46:50;;;;;;;;;;;16.60;99.90;;;;;;5075480;28;20463;-76
2023/04/08 12:49:15;;;;;;;;;;;16.60;99.90;;;;;;5075136;28;19936;-76
2023/04/08 12:51:41;;;;;;;;;;;16.50;99.90;;;;;;5073905;28;19912;-78
2023/04/08 12:54:07;;;;;;;;;;;16.50;99.90;;;;;;5075908;28;19916;-76
2023/04/08 12:56:33;;;;;;;;;;;16.50;99.90;;;;;;5075107;28;19912;-78
2023/04/08 12:58:59;;;;;;;;;;;16.50;99.90;;;;;;5074731;28;19913;-76
2023/04/08 13:01:25;;;;;;;;;;;16.60;99.90;;;;;;5075030;28;19908;-76
2023/04/08 13:03:51;;;;;;;;;;;16.70;99.90;;;;;;5075518;28;19919;-76
2023/04/08 13:06:17;;;;;;;;;;;16.70;99.90;;;;;;5075069;28;19908;-76
2023/04/08 13:08:42;;;;;;;;;;;16.60;99.90;;;;;;5074542;28;20008;-76
2023/04/08 13:11:08;;;;;;;;;;;16.70;99.90;;;;;;5075895;28;20380;-75
2023/04/08 13:13:34;;;;;;;;;;;16.70;99.90;;;;;;5075097;28;19925;-76
2023/04/08 13:15:59;;;;;;;;;;;16.70;99.90;;;;;;5074939;28;19912;-76
2023/04/08 13:18:25;;;;;;;;;;;16.60;99.90;;;;;;5074679;28;19916;-76
2023/04/08 13:20:51;;;;;;;;;;;16.60;99.90;;;;;;5074904;28;19917;-76
2023/04/08 13:23:16;;;;;;;;;;;16.50;99.90;;;;;;5072800;28;19923;-75
2023/04/08 13:25:44;;;;;;;;;;;16.40;99.90;;;;;;5073292;28;19915;-76
2023/04/08 13:28:10;;;;;;;;;;;16.20;99.90;;;;;;5074566;28;20430;-76
2023/04/08 13:30:35;;;;;;;;;;;16.30;99.90;;;;;;5073013;28;19939;-76
2023/04/08 13:33:01;;;;;;;;;;;16.20;99.90;;;;;;5073971;28;20374;-78
2023/04/08 13:35:27;;;;;;;;;;;16.10;99.90;;;;;;5073121;28;19916;-75
2023/04/08 13:37:52;;;;;;;;;;;16.00;99.90;;;;;;5074676;28;19913;-76
2023/04/08 13:40:18;;;;;;;;;;;16.00;99.90;;;;;;5074415;28;19946;-77
2023/04/08 13:42:44;;;;;;;;;;;16.00;99.90;;;;;;5073307;28;20350;-75
2023/04/08 13:45:10;;;;;;;;;;;15.90;99.90;;;;;;5074625;28;19952;-75
2023/04/08 13:47:35;;;;;;;;;;;15.90;99.90;;;;;;5074391;28;20427;-75
2023/04/08 13:50:01;;;;;;;;;;;15.80;99.90;;;;;;5073132;28;19963;-76
2023/04/08 13:52:27;;;;;;;;;;;15.80;99.90;;;;;;5072832;28;20552;-76
2023/04/08 13:54:52;;;;;;;;;;;15.80;99.90;;;;;;5072447;28;19921;-76
2023/04/08 13:57:18;;;;;;;;;;;15.60;99.90;;;;;;5073308;28;19915;-75
2023/04/08 13:59:44;;;;;;;;;;;15.60;99.90;;;;;;5072932;28;19916;-76
2023/04/08 14:02:10;;;;;;;;;;;15.60;99.90;;;;;;5073317;28;19961;-77
2023/04/08 14:04:35;;;;;;;;;;;15.50;99.90;;;;;;5073543;28;19909;-77
2023/04/08 14:07:01;;;;;;;;;;;15.40;99.90;;;;;;5073990;28;19923;-76
2023/04/08 14:09:27;;;;;;;;;;;15.40;99.90;;;;;;5071373;28;19915;-75
2023/04/08 14:11:52;;;;;;;;;;;15.30;99.90;;;;;;5072683;28;19919;-75
2023/04/08 14:14:18;;;;;;;;;;;15.20;99.90;;;;;;5074721;28;19927;-75
2023/04/08 14:16:43;;;;;;;;;;;15.10;99.90;;;;;;5075742;28;20355;-76
2023/04/08 14:19:09;;;;;;;;;;;15.10;99.90;;;;;;5076174;28;19908;-76
2023/04/08 14:21:36;;;;;;;;;;;14.90;99.90;;;;;;5076231;28;19998;-75